sensor_id;sensor_type;location;lat;lon;timestamp;P1;durP1;ratioP1;P2;durP2;ratioP2
16642;SDS011;8435;52.184;5.406;2022-11-30T00:01:27;17.80;;;16.00;;
16642;SDS011;8435;52.184;5.406;2022-11-30T00:03:54;17.87;;;16.07;;
16642;SDS011;8435;52.184;5.406;2022-11-30T00:06:22;17.73;;;15.97;;
16642;SDS011;8435;52.184;5.406;2022-11-30T00:08:51;17.33;;;15.50;;
16642;SDS011;8435;52.184;5.406;2022-11-30T00:11:19;17.57;;;15.77;;
16642;SDS011;8435;52.184;5.406;2022-11-30T00:13:46;18.57;;;16.67;;
16642;SDS011;8435;52.184;5.406;2022-11-30T00:16:14;18.67;;;16.77;;
16642;SDS011;8435;52.184;5.406;2022-11-30T00:18:41;20.10;;;17.97;;
16642;SDS011;8435;52.184;5.406;2022-11-30T00:21:09;17.50;;;15.70;;
16642;SDS011;8435;52.184;5.406;2022-11-30T00:23:38;18.93;;;16.93;;
16642;SDS011;8435;52.184;5.406;2022-11-30T00:26:08;17.27;;;15.57;;
16642;SDS011;8435;52.184;5.406;2022-11-30T00:28:36;18.90;;;17.00;;
16642;SDS011;8435;52.184;5.406;2022-11-30T00:31:04;19.17;;;16.60;;
16642;SDS011;8435;52.184;5.406;2022-11-30T00:33:34;18.33;;;16.53;;
16642;SDS011;8435;52.184;5.406;2022-11-30T00:36:02;17.67;;;15.80;;
16642;SDS011;8435;52.184;5.406;2022-11-30T00:38:30;18.60;;;16.70;;
16642;SDS011;8435;52.184;5.406;2022-11-30T00:40:58;18.20;;;16.30;;
16642;SDS011;8435;52.184;5.406;2022-11-30T00:43:24;17.63;;;15.83;;
16642;SDS011;8435;52.184;5.406;2022-11-30T00:45:51;17.67;;;15.87;;
16642;SDS011;8435;52.184;5.406;2022-11-30T00:48:18;17.30;;;15.50;;
16642;SDS011;8435;52.184;5.406;2022-11-30T00:50:47;16.53;;;14.83;;
16642;SDS011;8435;52.184;5.406;2022-11-30T00:53:15;16.27;;;14.57;;
16642;SDS011;8435;52.184;5.406;2022-11-30T00:55:42;17.40;;;15.50;;
16642;SDS011;8435;52.184;5.406;2022-11-30T00:58:09;18.33;;;15.97;;
16642;SDS011;8435;52.184;5.406;2022-11-30T01:00:36;19.30;;;17.23;;
16642;SDS011;8435;52.184;5.406;2022-11-30T01:03:03;18.20;;;16.30;;
16642;SDS011;8435;52.184;5.406;2022-11-30T01:05:31;17.30;;;15.50;;
16642;SDS011;8435;52.184;5.406;2022-11-30T01:07:59;18.00;;;16.07;;
16642;SDS011;8435;52.184;5.406;2022-11-30T01:10:26;17.37;;;15.67;;
16642;SDS011;8435;52.184;5.406;2022-11-30T01:12:53;16.20;;;14.60;;
16642;SDS011;8435;52.184;5.406;2022-11-30T01:15:20;17.03;;;15.23;;
16642;SDS011;8435;52.184;5.406;2022-11-30T01:17:47;16.77;;;15.03;;
16642;SDS011;8435;52.184;5.406;2022-11-30T01:20:14;18.03;;;16.13;;
16642;SDS011;8435;52.184;5.406;2022-11-30T01:22:41;17.67;;;15.87;;
16642;SDS011;8435;52.184;5.406;2022-11-30T01:25:09;17.77;;;15.90;;
16642;SDS011;8435;52.184;5.406;2022-11-30T01:27:36;17.97;;;16.07;;
16642;SDS011;8435;52.184;5.406;2022-11-30T01:30:03;17.10;;;15.30;;
16642;SDS011;8435;52.184;5.406;2022-11-30T01:32:31;17.47;;;15.67;;
16642;SDS011;8435;52.184;5.406;2022-11-30T01:34:58;16.97;;;14.90;;
16642;SDS011;8435;52.184;5.406;2022-11-30T01:37:24;18.00;;;16.20;;
16642;SDS011;8435;52.184;5.406;2022-11-30T01:39:53;17.97;;;16.07;;
16642;SDS011;8435;52.184;5.406;2022-11-30T01:42:21;18.67;;;16.67;;
16642;SDS011;8435;52.184;5.406;2022-11-30T01:44:50;18.70;;;16.53;;
16642;SDS011;8435;52.184;5.406;2022-11-30T01:47:19;19.70;;;17.57;;
16642;SDS011;8435;52.184;5.406;2022-11-30T01:49:52;18.07;;;16.13;;
16642;SDS011;8435;52.184;5.406;2022-11-30T01:52:22;17.57;;;15.67;;
16642;SDS011;8435;52.184;5.406;2022-11-30T01:54:53;18.63;;;16.63;;
16642;SDS011;8435;52.184;5.406;2022-11-30T01:57:28;17.40;;;15.60;;
16642;SDS011;8435;52.184;5.406;2022-11-30T02:00:00;18.27;;;15.80;;
16642;SDS011;8435;52.184;5.406;2022-11-30T02:02:31;18.93;;;16.93;;
16642;SDS011;8435;52.184;5.406;2022-11-30T02:05:05;18.13;;;16.23;;
16642;SDS011;8435;52.184;5.406;2022-11-30T02:07:32;17.93;;;15.90;;
16642;SDS011;8435;52.184;5.406;2022-11-30T02:10:00;17.47;;;15.60;;
16642;SDS011;8435;52.184;5.406;2022-11-30T02:12:30;17.27;;;15.43;;
16642;SDS011;8435;52.184;5.406;2022-11-30T02:15:05;15.40;;;13.83;;
16642;SDS011;8435;52.184;5.406;2022-11-30T02:17:38;18.13;;;16.17;;
16642;SDS011;8435;52.184;5.406;2022-11-30T02:23:13;17.10;;;15.40;;
16642;SDS011;8435;52.184;5.406;2022-11-30T02:26:02;17.77;;;15.83;;
16642;SDS011;8435;52.184;5.406;2022-11-30T02:28:43;16.10;;;14.50;;
16642;SDS011;8435;52.184;5.406;2022-11-30T02:31:30;16.83;;;14.90;;
16642;SDS011;8435;52.184;5.406;2022-11-30T02:34:03;16.80;;;15.00;;
16642;SDS011;8435;52.184;5.406;2022-11-30T02:36:33;18.87;;;16.07;;
16642;SDS011;8435;52.184;5.406;2022-11-30T02:39:00;17.53;;;15.73;;
16642;SDS011;8435;52.184;5.406;2022-11-30T02:41:33;18.03;;;16.17;;
16642;SDS011;8435;52.184;5.406;2022-11-30T02:44:02;18.60;;;16.53;;
16642;SDS011;8435;52.184;5.406;2022-11-30T02:46:30;17.80;;;15.90;;
16642;SDS011;8435;52.184;5.406;2022-11-30T02:49:01;16.13;;;14.53;;
16642;SDS011;8435;52.184;5.406;2022-11-30T02:51:31;17.20;;;15.37;;
16642;SDS011;8435;52.184;5.406;2022-11-30T02:54:01;16.87;;;14.93;;
16642;SDS011;8435;52.184;5.406;2022-11-30T02:56:27;16.70;;;14.90;;
16642;SDS011;8435;52.184;5.406;2022-11-30T02:58:55;17.53;;;15.63;;
16642;SDS011;8435;52.184;5.406;2022-11-30T03:01:24;17.97;;;16.13;;
16642;SDS011;8435;52.184;5.406;2022-11-30T03:03:51;18.43;;;15.40;;
16642;SDS011;8435;52.184;5.406;2022-11-30T03:06:17;17.43;;;15.07;;
16642;SDS011;8435;52.184;5.406;2022-11-30T03:08:44;18.80;;;16.67;;
16642;SDS011;8435;52.184;5.406;2022-11-30T03:11:11;18.10;;;15.37;;
16642;SDS011;8435;52.184;5.406;2022-11-30T03:13:37;19.03;;;16.37;;
16642;SDS011;8435;52.184;5.406;2022-11-30T03:16:05;18.63;;;16.70;;
16642;SDS011;8435;52.184;5.406;2022-11-30T03:18:33;19.53;;;17.50;;
16642;SDS011;8435;52.184;5.406;2022-11-30T03:21:03;18.37;;;16.47;;
16642;SDS011;8435;52.184;5.406;2022-11-30T03:23:30;19.00;;;16.30;;
16642;SDS011;8435;52.184;5.406;2022-11-30T03:25:57;18.33;;;16.43;;
16642;SDS011;8435;52.184;5.406;2022-11-30T03:28:24;19.20;;;16.67;;
16642;SDS011;8435;52.184;5.406;2022-11-30T03:30:51;18.57;;;16.63;;
16642;SDS011;8435;52.184;5.406;2022-11-30T03:33:18;19.20;;;17.17;;
16642;SDS011;8435;52.184;5.406;2022-11-30T03:35:46;20.07;;;17.47;;
16642;SDS011;8435;52.184;5.406;2022-11-30T03:38:13;18.07;;;16.20;;
16642;SDS011;8435;52.184;5.406;2022-11-30T03:40:39;20.23;;;16.20;;
16642;SDS011;8435;52.184;5.406;2022-11-30T03:43:06;18.67;;;16.70;;
16642;SDS011;8435;52.184;5.406;2022-11-30T03:45:33;18.83;;;16.83;;
16642;SDS011;8435;52.184;5.406;2022-11-30T03:47:59;18.10;;;16.17;;
16642;SDS011;8435;52.184;5.406;2022-11-30T03:50:26;16.50;;;14.43;;
16642;SDS011;8435;52.184;5.406;2022-11-30T03:52:54;16.87;;;15.17;;
16642;SDS011;8435;52.184;5.406;2022-11-30T03:55:21;17.43;;;15.53;;
16642;SDS011;8435;52.184;5.406;2022-11-30T03:57:48;18.13;;;16.23;;
16642;SDS011;8435;52.184;5.406;2022-11-30T04:00:15;17.50;;;14.03;;
16642;SDS011;8435;52.184;5.406;2022-11-30T04:02:42;17.23;;;15.40;;
16642;SDS011;8435;52.184;5.406;2022-11-30T04:05:09;17.70;;;15.80;;
16642;SDS011;8435;52.184;5.406;2022-11-30T04:07:36;18.67;;;16.30;;
16642;SDS011;8435;52.184;5.406;2022-11-30T04:10:04;17.10;;;15.30;;
16642;SDS011;8435;52.184;5.406;2022-11-30T04:12:32;17.83;;;15.97;;
16642;SDS011;8435;52.184;5.406;2022-11-30T04:14:59;18.43;;;16.50;;
16642;SDS011;8435;52.184;5.406;2022-11-30T04:17:25;17.90;;;16.07;;
16642;SDS011;8435;52.184;5.406;2022-11-30T04:19:52;17.07;;;15.27;;
16642;SDS011;8435;52.184;5.406;2022-11-30T04:22:19;16.73;;;15.03;;
16642;SDS011;8435;52.184;5.406;2022-11-30T04:24:46;19.17;;;16.07;;
16642;SDS011;8435;52.184;5.406;2022-11-30T04:27:14;19.30;;;15.63;;
16642;SDS011;8435;52.184;5.406;2022-11-30T04:29:40;16.73;;;14.77;;
16642;SDS011;8435;52.184;5.406;2022-11-30T04:32:07;18.20;;;16.30;;
16642;SDS011;8435;52.184;5.406;2022-11-30T04:34:34;18.43;;;16.53;;
16642;SDS011;8435;52.184;5.406;2022-11-30T04:37:00;16.53;;;14.83;;
16642;SDS011;8435;52.184;5.406;2022-11-30T04:39:27;17.10;;;15.30;;
16642;SDS011;8435;52.184;5.406;2022-11-30T04:41:54;17.30;;;15.50;;
16642;SDS011;8435;52.184;5.406;2022-11-30T04:44:22;17.97;;;16.07;;
16642;SDS011;8435;52.184;5.406;2022-11-30T04:46:49;17.30;;;15.50;;
16642;SDS011;8435;52.184;5.406;2022-11-30T04:49:16;18.23;;;15.63;;
16642;SDS011;8435;52.184;5.406;2022-11-30T04:51:42;17.67;;;15.80;;
16642;SDS011;8435;52.184;5.406;2022-11-30T04:54:09;16.93;;;15.13;;
16642;SDS011;8435;52.184;5.406;2022-11-30T04:56:36;17.63;;;15.50;;
16642;SDS011;8435;52.184;5.406;2022-11-30T04:59:02;18.50;;;16.57;;
16642;SDS011;8435;52.184;5.406;2022-11-30T05:01:31;16.50;;;14.60;;
16642;SDS011;8435;52.184;5.406;2022-11-30T05:03:57;18.03;;;14.63;;
16642;SDS011;8435;52.184;5.406;2022-11-30T05:06:24;15.63;;;14.03;;
16642;SDS011;8435;52.184;5.406;2022-11-30T05:08:51;16.77;;;15.00;;
16642;SDS011;8435;52.184;5.406;2022-11-30T05:11:18;17.50;;;15.40;;
16642;SDS011;8435;52.184;5.406;2022-11-30T05:13:44;18.07;;;16.00;;
16642;SDS011;8435;52.184;5.406;2022-11-30T05:16:11;17.33;;;15.53;;
16642;SDS011;8435;52.184;5.406;2022-11-30T05:18:39;16.00;;;14.27;;
16642;SDS011;8435;52.184;5.406;2022-11-30T05:21:06;15.17;;;13.57;;
16642;SDS011;8435;52.184;5.406;2022-11-30T05:23:33;15.53;;;13.93;;
16642;SDS011;8435;52.184;5.406;2022-11-30T05:26:00;17.10;;;15.37;;
16642;SDS011;8435;52.184;5.406;2022-11-30T05:28:27;16.17;;;14.47;;
16642;SDS011;8435;52.184;5.406;2022-11-30T05:30:54;17.10;;;15.00;;
16642;SDS011;8435;52.184;5.406;2022-11-30T05:33:21;18.03;;;14.93;;
16642;SDS011;8435;52.184;5.406;2022-11-30T05:35:49;16.33;;;14.70;;
16642;SDS011;8435;52.184;5.406;2022-11-30T05:38:15;16.40;;;14.67;;
16642;SDS011;8435;52.184;5.406;2022-11-30T05:40:42;17.17;;;14.97;;
16642;SDS011;8435;52.184;5.406;2022-11-30T05:43:09;16.50;;;14.80;;
16642;SDS011;8435;52.184;5.406;2022-11-30T05:45:36;17.20;;;15.10;;
16642;SDS011;8435;52.184;5.406;2022-11-30T05:48:03;17.73;;;14.83;;
16642;SDS011;8435;52.184;5.406;2022-11-30T05:50:30;17.90;;;15.07;;
16642;SDS011;8435;52.184;5.406;2022-11-30T05:52:58;16.80;;;14.87;;
16642;SDS011;8435;52.184;5.406;2022-11-30T05:55:26;18.53;;;15.77;;
16642;SDS011;8435;52.184;5.406;2022-11-30T05:57:53;17.43;;;14.73;;
16642;SDS011;8435;52.184;5.406;2022-11-30T06:00:20;16.53;;;14.30;;
16642;SDS011;8435;52.184;5.406;2022-11-30T06:02:47;16.13;;;14.03;;
16642;SDS011;8435;52.184;5.406;2022-11-30T06:05:19;16.17;;;14.30;;
16642;SDS011;8435;52.184;5.406;2022-11-30T06:07:46;17.33;;;15.60;;
16642;SDS011;8435;52.184;5.406;2022-11-30T06:10:14;15.57;;;13.97;;
16642;SDS011;8435;52.184;5.406;2022-11-30T06:12:41;17.60;;;14.93;;
16642;SDS011;8435;52.184;5.406;2022-11-30T06:15:08;17.77;;;15.87;;
16642;SDS011;8435;52.184;5.406;2022-11-30T06:17:36;16.40;;;13.80;;
16642;SDS011;8435;52.184;5.406;2022-11-30T06:20:03;18.60;;;15.20;;
16642;SDS011;8435;52.184;5.406;2022-11-30T06:22:30;15.37;;;13.73;;
16642;SDS011;8435;52.184;5.406;2022-11-30T06:24:57;17.63;;;14.67;;
16642;SDS011;8435;52.184;5.406;2022-11-30T06:27:26;17.07;;;14.27;;
16642;SDS011;8435;52.184;5.406;2022-11-30T06:29:55;16.70;;;14.27;;
16642;SDS011;8435;52.184;5.406;2022-11-30T06:32:22;16.40;;;13.77;;
16642;SDS011;8435;52.184;5.406;2022-11-30T06:34:48;16.37;;;13.80;;
16642;SDS011;8435;52.184;5.406;2022-11-30T06:37:15;15.47;;;13.70;;
16642;SDS011;8435;52.184;5.406;2022-11-30T06:39:42;16.87;;;13.90;;
16642;SDS011;8435;52.184;5.406;2022-11-30T06:42:09;14.33;;;12.83;;
16642;SDS011;8435;52.184;5.406;2022-11-30T06:44:37;15.70;;;13.13;;
16642;SDS011;8435;52.184;5.406;2022-11-30T06:47:04;15.77;;;13.40;;
16642;SDS011;8435;52.184;5.406;2022-11-30T06:49:31;16.77;;;13.77;;
16642;SDS011;8435;52.184;5.406;2022-11-30T06:51:57;18.03;;;14.87;;
16642;SDS011;8435;52.184;5.406;2022-11-30T06:54:25;18.03;;;13.53;;
16642;SDS011;8435;52.184;5.406;2022-11-30T06:56:52;18.43;;;14.70;;
16642;SDS011;8435;52.184;5.406;2022-11-30T06:59:20;17.10;;;14.57;;
16642;SDS011;8435;52.184;5.406;2022-11-30T07:01:48;17.40;;;15.00;;
16642;SDS011;8435;52.184;5.406;2022-11-30T07:04:15;18.67;;;15.53;;
16642;SDS011;8435;52.184;5.406;2022-11-30T07:06:42;18.53;;;14.77;;
16642;SDS011;8435;52.184;5.406;2022-11-30T07:09:09;15.83;;;14.07;;
16642;SDS011;8435;52.184;5.406;2022-11-30T07:11:37;18.37;;;14.67;;
16642;SDS011;8435;52.184;5.406;2022-11-30T07:14:04;19.10;;;14.47;;
16642;SDS011;8435;52.184;5.406;2022-11-30T07:16:30;23.17;;;15.20;;
16642;SDS011;8435;52.184;5.406;2022-11-30T07:18:58;21.07;;;14.90;;
16642;SDS011;8435;52.184;5.406;2022-11-30T07:21:25;35.67;;;16.20;;
16642;SDS011;8435;52.184;5.406;2022-11-30T07:23:52;40.67;;;17.03;;
16642;SDS011;8435;52.184;5.406;2022-11-30T07:26:36;19.73;;;15.17;;
16642;SDS011;8435;52.184;5.406;2022-11-30T07:29:03;30.03;;;14.67;;
16642;SDS011;8435;52.184;5.406;2022-11-30T07:31:30;24.07;;;13.90;;
16642;SDS011;8435;52.184;5.406;2022-11-30T07:34:02;19.20;;;13.93;;
16642;SDS011;8435;52.184;5.406;2022-11-30T07:36:30;15.50;;;13.10;;
16642;SDS011;8435;52.184;5.406;2022-11-30T07:38:56;29.70;;;15.13;;
16642;SDS011;8435;52.184;5.406;2022-11-30T07:41:23;21.20;;;14.90;;
16642;SDS011;8435;52.184;5.406;2022-11-30T07:43:50;16.40;;;12.97;;
16642;SDS011;8435;52.184;5.406;2022-11-30T07:46:17;16.53;;;13.40;;
16642;SDS011;8435;52.184;5.406;2022-11-30T07:48:44;17.87;;;14.13;;
16642;SDS011;8435;52.184;5.406;2022-11-30T07:51:13;19.43;;;14.07;;
16642;SDS011;8435;52.184;5.406;2022-11-30T07:53:41;18.80;;;14.40;;
16642;SDS011;8435;52.184;5.406;2022-11-30T07:56:09;18.83;;;14.80;;
16642;SDS011;8435;52.184;5.406;2022-11-30T07:58:36;17.30;;;13.93;;
16642;SDS011;8435;52.184;5.406;2022-11-30T08:01:04;18.03;;;14.60;;
16642;SDS011;8435;52.184;5.406;2022-11-30T08:03:32;16.23;;;13.77;;
16642;SDS011;8435;52.184;5.406;2022-11-30T08:05:59;16.67;;;14.17;;
16642;SDS011;8435;52.184;5.406;2022-11-30T08:08:29;16.70;;;14.30;;
16642;SDS011;8435;52.184;5.406;2022-11-30T08:10:56;18.30;;;13.30;;
16642;SDS011;8435;52.184;5.406;2022-11-30T08:13:24;16.77;;;14.33;;
16642;SDS011;8435;52.184;5.406;2022-11-30T08:15:51;17.60;;;14.37;;
16642;SDS011;8435;52.184;5.406;2022-11-30T08:18:18;16.77;;;13.97;;
16642;SDS011;8435;52.184;5.406;2022-11-30T08:20:45;17.20;;;14.17;;
16642;SDS011;8435;52.184;5.406;2022-11-30T08:23:11;17.10;;;14.13;;
16642;SDS011;8435;52.184;5.406;2022-11-30T08:25:39;17.60;;;14.07;;
16642;SDS011;8435;52.184;5.406;2022-11-30T08:28:06;17.40;;;14.70;;
16642;SDS011;8435;52.184;5.406;2022-11-30T08:30:33;16.90;;;14.73;;
16642;SDS011;8435;52.184;5.406;2022-11-30T08:33:00;17.67;;;14.57;;
16642;SDS011;8435;52.184;5.406;2022-11-30T08:35:27;15.63;;;13.20;;
16642;SDS011;8435;52.184;5.406;2022-11-30T08:37:53;16.20;;;13.73;;
16642;SDS011;8435;52.184;5.406;2022-11-30T08:40:20;16.23;;;13.73;;
16642;SDS011;8435;52.184;5.406;2022-11-30T08:42:48;19.37;;;15.70;;
16642;SDS011;8435;52.184;5.406;2022-11-30T08:45:15;17.20;;;14.60;;
16642;SDS011;8435;52.184;5.406;2022-11-30T08:47:42;17.87;;;14.97;;
16642;SDS011;8435;52.184;5.406;2022-11-30T08:50:09;17.37;;;14.47;;
16642;SDS011;8435;52.184;5.406;2022-11-30T08:52:36;17.57;;;15.03;;
16642;SDS011;8435;52.184;5.406;2022-11-30T08:55:03;18.17;;;15.47;;
16642;SDS011;8435;52.184;5.406;2022-11-30T08:57:30;21.47;;;17.00;;
16642;SDS011;8435;52.184;5.406;2022-11-30T08:59:58;20.13;;;16.60;;
16642;SDS011;8435;52.184;5.406;2022-11-30T09:02:26;18.93;;;15.57;;
16642;SDS011;8435;52.184;5.406;2022-11-30T09:04:52;19.50;;;16.10;;
16642;SDS011;8435;52.184;5.406;2022-11-30T09:07:19;19.03;;;16.97;;
16642;SDS011;8435;52.184;5.406;2022-11-30T09:09:46;20.27;;;15.50;;
16642;SDS011;8435;52.184;5.406;2022-11-30T09:12:13;20.70;;;16.63;;
16642;SDS011;8435;52.184;5.406;2022-11-30T09:14:40;19.03;;;15.90;;
16642;SDS011;8435;52.184;5.406;2022-11-30T09:17:08;19.70;;;15.93;;
16642;SDS011;8435;52.184;5.406;2022-11-30T09:19:35;16.73;;;14.90;;
16642;SDS011;8435;52.184;5.406;2022-11-30T09:22:02;16.80;;;14.47;;
16642;SDS011;8435;52.184;5.406;2022-11-30T09:24:29;17.33;;;15.53;;
16642;SDS011;8435;52.184;5.406;2022-11-30T09:27:04;18.30;;;16.30;;
16642;SDS011;8435;52.184;5.406;2022-11-30T09:29:30;16.40;;;14.63;;
16642;SDS011;8435;52.184;5.406;2022-11-30T09:31:57;18.00;;;16.10;;
16642;SDS011;8435;52.184;5.406;2022-11-30T09:34:29;18.07;;;15.47;;
16642;SDS011;8435;52.184;5.406;2022-11-30T09:36:59;19.57;;;15.80;;
16642;SDS011;8435;52.184;5.406;2022-11-30T09:39:27;17.50;;;15.63;;
16642;SDS011;8435;52.184;5.406;2022-11-30T09:42:11;18.43;;;16.43;;
16642;SDS011;8435;52.184;5.406;2022-11-30T09:44:49;22.20;;;18.87;;
16642;SDS011;8435;52.184;5.406;2022-11-30T09:47:24;22.33;;;18.90;;
16642;SDS011;8435;52.184;5.406;2022-11-30T09:50:02;22.73;;;19.60;;
16642;SDS011;8435;52.184;5.406;2022-11-30T09:52:36;20.80;;;18.47;;
16642;SDS011;8435;52.184;5.406;2022-11-30T09:55:07;21.13;;;18.30;;
16642;SDS011;8435;52.184;5.406;2022-11-30T09:57:41;21.33;;;18.80;;
16642;SDS011;8435;52.184;5.406;2022-11-30T10:00:14;20.77;;;18.53;;
16642;SDS011;8435;52.184;5.406;2022-11-30T10:02:45;23.73;;;20.03;;
16642;SDS011;8435;52.184;5.406;2022-11-30T10:05:16;24.43;;;20.70;;
16642;SDS011;8435;52.184;5.406;2022-11-30T10:07:50;26.17;;;20.83;;
16642;SDS011;8435;52.184;5.406;2022-11-30T10:10:27;23.53;;;20.73;;
16642;SDS011;8435;52.184;5.406;2022-11-30T10:13:05;24.63;;;21.40;;
16642;SDS011;8435;52.184;5.406;2022-11-30T10:15:45;24.33;;;21.20;;
16642;SDS011;8435;52.184;5.406;2022-11-30T10:18:20;26.73;;;21.40;;
16642;SDS011;8435;52.184;5.406;2022-11-30T10:20:59;24.57;;;20.57;;
16642;SDS011;8435;52.184;5.406;2022-11-30T10:23:43;23.40;;;20.77;;
16642;SDS011;8435;52.184;5.406;2022-11-30T10:26:31;22.63;;;19.47;;
16642;SDS011;8435;52.184;5.406;2022-11-30T10:29:00;23.70;;;21.13;;
16642;SDS011;8435;52.184;5.406;2022-11-30T10:31:33;23.13;;;19.90;;
16642;SDS011;8435;52.184;5.406;2022-11-30T10:34:02;23.73;;;20.17;;
16642;SDS011;8435;52.184;5.406;2022-11-30T10:36:40;26.23;;;21.07;;
16642;SDS011;8435;52.184;5.406;2022-11-30T10:39:09;22.00;;;19.50;;
16642;SDS011;8435;52.184;5.406;2022-11-30T10:41:43;22.97;;;19.80;;
16642;SDS011;8435;52.184;5.406;2022-11-30T10:44:13;26.37;;;21.10;;
16642;SDS011;8435;52.184;5.406;2022-11-30T10:46:49;23.50;;;20.93;;
16642;SDS011;8435;52.184;5.406;2022-11-30T10:49:23;25.87;;;21.17;;
16642;SDS011;8435;52.184;5.406;2022-11-30T10:51:55;24.53;;;19.47;;
16642;SDS011;8435;52.184;5.406;2022-11-30T10:54:25;22.17;;;19.50;;
16642;SDS011;8435;52.184;5.406;2022-11-30T10:56:55;23.47;;;19.73;;
16642;SDS011;8435;52.184;5.406;2022-11-30T10:59:25;23.17;;;20.17;;
16642;SDS011;8435;52.184;5.406;2022-11-30T11:01:58;23.57;;;20.63;;
16642;SDS011;8435;52.184;5.406;2022-11-30T11:04:25;23.00;;;20.20;;
16642;SDS011;8435;52.184;5.406;2022-11-30T11:06:52;23.40;;;19.73;;
16642;SDS011;8435;52.184;5.406;2022-11-30T11:09:22;21.97;;;18.87;;
16642;SDS011;8435;52.184;5.406;2022-11-30T11:11:56;21.20;;;18.67;;
16642;SDS011;8435;52.184;5.406;2022-11-30T11:14:25;19.63;;;16.67;;
16642;SDS011;8435;52.184;5.406;2022-11-30T11:16:54;21.53;;;18.60;;
16642;SDS011;8435;52.184;5.406;2022-11-30T11:19:35;20.23;;;17.63;;
16642;SDS011;8435;52.184;5.406;2022-11-30T11:22:06;19.93;;;17.07;;
16642;SDS011;8435;52.184;5.406;2022-11-30T11:24:44;20.27;;;17.03;;
16642;SDS011;8435;52.184;5.406;2022-11-30T11:27:19;18.70;;;16.50;;
16642;SDS011;8435;52.184;5.406;2022-11-30T11:29:56;16.93;;;15.13;;
16642;SDS011;8435;52.184;5.406;2022-11-30T11:32:26;18.50;;;16.50;;
16642;SDS011;8435;52.184;5.406;2022-11-30T11:34:54;18.63;;;16.40;;
16642;SDS011;8435;52.184;5.406;2022-11-30T11:37:24;17.33;;;15.53;;
16642;SDS011;8435;52.184;5.406;2022-11-30T11:39:57;19.33;;;16.13;;
16642;SDS011;8435;52.184;5.406;2022-11-30T11:42:26;18.30;;;16.40;;
16642;SDS011;8435;52.184;5.406;2022-11-30T11:44:55;18.97;;;16.70;;
16642;SDS011;8435;52.184;5.406;2022-11-30T11:47:25;18.13;;;15.97;;
16642;SDS011;8435;52.184;5.406;2022-11-30T11:52:56;18.17;;;16.03;;
16642;SDS011;8435;52.184;5.406;2022-11-30T11:55:38;18.40;;;16.47;;
16642;SDS011;8435;52.184;5.406;2022-11-30T11:58:07;18.40;;;16.33;;
16642;SDS011;8435;52.184;5.406;2022-11-30T12:00:40;20.17;;;17.97;;
16642;SDS011;8435;52.184;5.406;2022-11-30T12:03:12;22.13;;;17.77;;
16642;SDS011;8435;52.184;5.406;2022-11-30T12:05:45;19.70;;;17.27;;
16642;SDS011;8435;52.184;5.406;2022-11-30T12:08:16;20.17;;;16.50;;
16642;SDS011;8435;52.184;5.406;2022-11-30T12:10:51;21.07;;;17.90;;
16642;SDS011;8435;52.184;5.406;2022-11-30T12:13:25;19.47;;;17.27;;
16642;SDS011;8435;52.184;5.406;2022-11-30T12:15:58;18.80;;;16.80;;
16642;SDS011;8435;52.184;5.406;2022-11-30T12:18:32;18.70;;;16.73;;
16642;SDS011;8435;52.184;5.406;2022-11-30T12:21:09;20.27;;;18.17;;
16642;SDS011;8435;52.184;5.406;2022-11-30T12:23:43;20.03;;;17.67;;
16642;SDS011;8435;52.184;5.406;2022-11-30T12:26:21;20.90;;;18.20;;
16642;SDS011;8435;52.184;5.406;2022-11-30T12:29:02;19.77;;;17.60;;
16642;SDS011;8435;52.184;5.406;2022-11-30T12:31:46;21.00;;;18.73;;
16642;SDS011;8435;52.184;5.406;2022-11-30T12:34:31;20.53;;;18.33;;
16642;SDS011;8435;52.184;5.406;2022-11-30T12:37:10;21.93;;;19.43;;
16642;SDS011;8435;52.184;5.406;2022-11-30T12:39:48;21.00;;;18.70;;
16642;SDS011;8435;52.184;5.406;2022-11-30T12:42:24;22.67;;;20.30;;
16642;SDS011;8435;52.184;5.406;2022-11-30T12:44:59;22.10;;;19.27;;
16642;SDS011;8435;52.184;5.406;2022-11-30T12:47:37;28.07;;;23.80;;
16642;SDS011;8435;52.184;5.406;2022-11-30T12:50:17;22.90;;;20.43;;
16642;SDS011;8435;52.184;5.406;2022-11-30T12:52:59;21.87;;;19.13;;
16642;SDS011;8435;52.184;5.406;2022-11-30T12:55:34;22.50;;;19.07;;
16642;SDS011;8435;52.184;5.406;2022-11-30T12:58:07;22.10;;;19.73;;
16642;SDS011;8435;52.184;5.406;2022-11-30T13:00:44;22.23;;;19.93;;
16642;SDS011;8435;52.184;5.406;2022-11-30T13:03:29;24.73;;;20.13;;
16642;SDS011;8435;52.184;5.406;2022-11-30T13:06:08;22.50;;;19.53;;
16642;SDS011;8435;52.184;5.406;2022-11-30T13:08:41;22.10;;;18.97;;
16642;SDS011;8435;52.184;5.406;2022-11-30T13:11:15;25.63;;;20.40;;
16642;SDS011;8435;52.184;5.406;2022-11-30T13:13:46;20.77;;;18.50;;
16642;SDS011;8435;52.184;5.406;2022-11-30T13:16:16;24.43;;;19.77;;
16642;SDS011;8435;52.184;5.406;2022-11-30T13:18:45;21.50;;;18.93;;
16642;SDS011;8435;52.184;5.406;2022-11-30T13:21:15;23.03;;;19.37;;
16642;SDS011;8435;52.184;5.406;2022-11-30T13:23:47;21.87;;;18.70;;
16642;SDS011;8435;52.184;5.406;2022-11-30T13:26:24;24.07;;;19.13;;
16642;SDS011;8435;52.184;5.406;2022-11-30T13:28:59;20.33;;;17.87;;
16642;SDS011;8435;52.184;5.406;2022-11-30T13:31:33;21.53;;;17.43;;
16642;SDS011;8435;52.184;5.406;2022-11-30T13:34:03;22.40;;;18.80;;
16642;SDS011;8435;52.184;5.406;2022-11-30T13:36:46;24.00;;;19.73;;
16642;SDS011;8435;52.184;5.406;2022-11-30T13:39:23;21.23;;;18.07;;
16642;SDS011;8435;52.184;5.406;2022-11-30T13:44:49;24.23;;;17.07;;
16642;SDS011;8435;52.184;5.406;2022-11-30T13:47:17;20.73;;;17.40;;
16642;SDS011;8435;52.184;5.406;2022-11-30T13:49:53;18.53;;;16.20;;
16642;SDS011;8435;52.184;5.406;2022-11-30T13:58:22;18.20;;;15.07;;
16642;SDS011;8435;52.184;5.406;2022-11-30T14:04:20;19.30;;;15.27;;
16642;SDS011;8435;52.184;5.406;2022-11-30T14:06:55;17.47;;;14.40;;
16642;SDS011;8435;52.184;5.406;2022-11-30T14:18:29;16.97;;;13.80;;
16642;SDS011;8435;52.184;5.406;2022-11-30T14:21:02;18.63;;;13.83;;
16642;SDS011;8435;52.184;5.406;2022-11-30T14:23:42;17.93;;;14.27;;
16642;SDS011;8435;52.184;5.406;2022-11-30T14:26:16;18.60;;;15.63;;
16642;SDS011;8435;52.184;5.406;2022-11-30T14:28:49;17.23;;;13.90;;
16642;SDS011;8435;52.184;5.406;2022-11-30T14:31:22;18.17;;;14.43;;
16642;SDS011;8435;52.184;5.406;2022-11-30T14:33:52;19.27;;;14.50;;
16642;SDS011;8435;52.184;5.406;2022-11-30T14:36:24;17.20;;;14.20;;
16642;SDS011;8435;52.184;5.406;2022-11-30T14:38:57;17.90;;;13.43;;
16642;SDS011;8435;52.184;5.406;2022-11-30T14:41:25;15.40;;;12.70;;
16642;SDS011;8435;52.184;5.406;2022-11-30T14:43:59;16.67;;;12.97;;
16642;SDS011;8435;52.184;5.406;2022-11-30T14:46:30;15.73;;;13.53;;
16642;SDS011;8435;52.184;5.406;2022-11-30T14:49:03;16.73;;;12.77;;
16642;SDS011;8435;52.184;5.406;2022-11-30T14:51:30;16.47;;;13.10;;
16642;SDS011;8435;52.184;5.406;2022-11-30T14:53:59;15.30;;;12.63;;
16642;SDS011;8435;52.184;5.406;2022-11-30T14:56:38;16.40;;;12.87;;
16642;SDS011;8435;52.184;5.406;2022-11-30T14:59:14;16.40;;;13.03;;
16642;SDS011;8435;52.184;5.406;2022-11-30T15:01:55;16.33;;;13.13;;
16642;SDS011;8435;52.184;5.406;2022-11-30T15:04:23;16.53;;;13.97;;
16642;SDS011;8435;52.184;5.406;2022-11-30T15:06:52;16.87;;;13.97;;
16642;SDS011;8435;52.184;5.406;2022-11-30T15:09:20;17.73;;;13.00;;
16642;SDS011;8435;52.184;5.406;2022-11-30T15:11:49;17.53;;;13.53;;
16642;SDS011;8435;52.184;5.406;2022-11-30T15:14:17;16.90;;;13.90;;
16642;SDS011;8435;52.184;5.406;2022-11-30T15:16:47;17.00;;;14.03;;